Terminal Aerodrome Forecast
Issued by NWS Jackson, KY

Home | Current Version | Previous Version | Text Only | Print | Product List | Glossary On
Versions: 1 2 3 4 5 6 7 8 9 10 11 12 13 14 15 16 17 18 19 20 21
000
FTUS43 KJKL 281740 CCA
TAFJKL
TAF COR
KJKL 281740Z 2818/2918 23006KT P6SM BKN025 BKN050
     FM282000 24007KT P6SM SCT025 BKN050
     FM282200 24005KT P6SM VCSH BKN060
     FM290700 26004KT P6SM VCSH BKN015
     FM291200 VRB03KT P6SM BKN003
     FM291400 VRB03KT P6SM SCT025=

USA.gov is the U.S. government's official web portal to all federal, state and local government web resources and services.